ブリッジタウン の空港の天気 - METARとTAF

グラントレー・アダムス国際空港 ( TBPB / BGI ) - バルバドス ブリッジタウン
飛行場実況気象(Metar)
観測時間07/15 06:00 AST (07/15 10:00 UTC)
風向・風速東南東 4m/s
視程10km以上
天気現象
全天の4割程度の雲 雲底高度 550m
気温27℃
湿度74%
気圧1013hPa
METARTBPB 151000Z 12008KT 9999 SCT018 27/22 Q1013 NOSIG
過去の天気等 Google飛行場航空写真 Wunderground天気予報

過去48時間のMETAR

飛行場予報(TAF)
発表時間: 7/15 01:00 AST (7/15 05:00 UTC)
予報対象時間: 15日2時 AST ~ 16日2時 AST
風向・風速東 5m/s
視程10km以上
全天の4割程度の雲 雲底高度 610m
15日14時 AST ~ 15日24時 AST に一時的に
天気現象しゅう雨
全天の8割程度の雲 雲底高度 460m
全天の4割程度の雲 雲底高度 1040m
TAF TBPB 150500Z 1506/1606 10010KT 9999 SCT020
TEMPO 1518/1604 SHRA BKN015 SCT034